createdAt,value
2023-04-16T00:02:00.004Z,88.60
2023-04-16T00:04:26.749Z,88.95
2023-04-16T00:06:54.815Z,89.62
2023-04-16T00:09:21.709Z,89.55
2023-04-16T00:11:48.408Z,90.40
2023-04-16T00:14:15.032Z,90.77
2023-04-16T00:16:41.645Z,90.80
2023-04-16T00:19:08.478Z,91.70
2023-04-16T00:21:35.487Z,90.83
2023-04-16T00:24:02.112Z,90.73
2023-04-16T00:26:28.754Z,90.26
2023-04-16T00:28:55.641Z,90.08
2023-04-16T00:31:30.456Z,90.50
2023-04-16T00:33:57.918Z,91.04
2023-04-16T00:36:25.985Z,90.61
2023-04-16T00:38:53.218Z,90.03
2023-04-16T00:41:20.301Z,88.96
2023-04-16T00:43:46.943Z,89.41
2023-04-16T00:46:13.792Z,90.28
2023-04-16T00:48:41.300Z,90.19
2023-04-16T00:51:08.849Z,90.29
2023-04-16T00:53:36.249Z,91.46
2023-04-16T00:56:04.324Z,91.67
2023-04-16T00:58:31.749Z,92.39
2023-04-16T01:00:58.859Z,92.90
2023-04-16T01:03:37.346Z,93.33
2023-04-16T01:06:04.577Z,93.50
2023-04-16T01:08:31.469Z,94.31
2023-04-16T01:10:58.344Z,94.52
2023-04-16T01:13:25.480Z,92.58
2023-04-16T01:15:52.476Z,93.09
2023-04-16T01:18:21.231Z,92.16
2023-04-16T01:20:48.812Z,91.02
2023-04-16T01:23:15.973Z,91.83
2023-04-16T01:25:43.550Z,91.52
2023-04-16T01:28:10.840Z,90.78
2023-04-16T01:30:37.528Z,91.80
2023-04-16T01:33:30.099Z,91.29
2023-04-16T01:35:56.887Z,91.22
2023-04-16T01:38:23.949Z,91.18
2023-04-16T01:40:50.768Z,91.37
2023-04-16T01:43:17.468Z,91.35
2023-04-16T01:45:44.159Z,91.15
2023-04-16T01:48:12.213Z,91.32
2023-04-16T01:50:38.905Z,91.76
2023-04-16T01:53:05.696Z,91.92
2023-04-16T01:55:35.184Z,92.34
2023-04-16T01:58:01.924Z,92.44
2023-04-16T02:00:33.582Z,92.18
2023-04-16T02:03:00.589Z,92.20
2023-04-16T02:05:28.538Z,91.99
2023-04-16T02:07:55.284Z,91.87
2023-04-16T02:10:22.146Z,91.72
2023-04-16T02:12:48.966Z,91.35
2023-04-16T02:15:16.324Z,90.60
2023-04-16T02:17:43.273Z,90.78
2023-04-16T02:20:11.206Z,91.07
2023-04-16T02:22:48.083Z,91.45
2023-04-16T02:25:18.236Z,91.47
2023-04-16T02:27:44.944Z,91.36
2023-04-16T02:30:24.307Z,90.97
2023-04-16T02:32:52.444Z,90.90
2023-04-16T02:35:20.099Z,90.76
2023-04-16T02:37:47.029Z,90.69
2023-04-16T02:40:13.882Z,91.79
2023-04-16T02:42:40.702Z,91.98
2023-04-16T02:45:08.743Z,91.73
2023-04-16T02:47:35.585Z,91.55
2023-04-16T02:50:03.771Z,92.29
2023-04-16T02:52:32.201Z,91.95
2023-04-16T02:54:59.154Z,91.87
2023-04-16T02:57:26.004Z,91.22
2023-04-16T02:59:52.708Z,91.99
2023-04-16T03:02:19.471Z,92.84
2023-04-16T03:04:46.577Z,92.84
2023-04-16T03:07:13.668Z,91.93
2023-04-16T03:09:40.336Z,91.62
2023-04-16T03:12:07.073Z,91.42
2023-04-16T03:14:33.729Z,91.51
2023-04-16T03:17:00.517Z,92.04
2023-04-16T03:19:27.388Z,92.41
2023-04-16T03:21:54.037Z,91.10
2023-04-16T03:24:20.680Z,91.38
2023-04-16T03:26:49.266Z,91.23
2023-04-16T03:29:16.061Z,92.55
2023-04-16T03:31:43.259Z,92.90
2023-04-16T03:34:10.694Z,93.29
2023-04-16T03:36:39.217Z,93.15
2023-04-16T03:39:05.982Z,93.46
2023-04-16T03:41:33.162Z,91.94
2023-04-16T03:44:00.467Z,92.25
2023-04-16T03:46:27.197Z,92.95
2023-04-16T03:48:54.289Z,92.79
2023-04-16T03:51:21.232Z,93.14
2023-04-16T03:53:47.948Z,92.64
2023-04-16T03:56:14.945Z,93.28
2023-04-16T03:58:41.636Z,93.05
2023-04-16T04:01:08.723Z,92.85
2023-04-16T04:03:37.536Z,93.97
2023-04-16T04:06:10.592Z,94.01
2023-04-16T04:08:37.203Z,93.44
2023-04-16T04:11:04.918Z,93.46
2023-04-16T04:13:33.425Z,92.73
2023-04-16T04:16:00.248Z,92.46
2023-04-16T04:18:28.069Z,91.94
2023-04-16T04:20:54.774Z,92.68
2023-04-16T04:23:25.670Z,92.55
2023-04-16T04:25:52.294Z,92.75
2023-04-16T04:28:19.042Z,92.57
2023-04-16T04:30:45.725Z,93.28
2023-04-16T04:33:12.881Z,91.81
2023-04-16T04:35:39.568Z,92.27
2023-04-16T04:38:06.565Z,91.27
2023-04-16T04:40:34.024Z,91.40
2023-04-16T04:43:00.985Z,91.15
2023-04-16T04:45:29.628Z,90.57
2023-04-16T04:47:59.289Z,90.07
2023-04-16T04:50:26.257Z,90.67
2023-04-16T04:52:52.889Z,90.86
2023-04-16T04:55:19.874Z,91.11
2023-04-16T04:57:46.555Z,90.29
2023-04-16T05:00:13.638Z,90.68
2023-04-16T05:02:51.091Z,89.57
2023-04-16T05:05:18.052Z,89.43
2023-04-16T05:07:44.759Z,89.21
2023-04-16T05:10:11.491Z,88.79
2023-04-16T05:12:38.229Z,88.18
2023-04-16T05:15:05.203Z,88.16
2023-04-16T05:17:32.279Z,88.71
2023-04-16T05:20:00.448Z,88.49
2023-04-16T05:22:27.081Z,87.74
2023-04-16T05:24:53.690Z,88.54
2023-04-16T05:27:20.424Z,87.94
2023-04-16T05:29:47.072Z,88.22
2023-04-16T05:32:13.763Z,87.46
2023-04-16T05:34:40.571Z,88.22
2023-04-16T05:37:07.270Z,88.68
2023-04-16T05:39:33.862Z,88.28
2023-04-16T05:42:00.577Z,88.10
2023-04-16T05:44:27.232Z,86.64
2023-04-16T05:46:54.082Z,85.98
2023-04-16T05:49:22.105Z,85.82
2023-04-16T05:51:50.735Z,85.28
2023-04-16T05:54:18.106Z,85.05
2023-04-16T05:56:44.934Z,85.48
2023-04-16T05:59:11.814Z,85.33
2023-04-16T06:01:39.070Z,85.22
2023-04-16T06:04:05.847Z,86.04
2023-04-16T06:06:32.575Z,85.59
2023-04-16T06:08:59.339Z,84.71
2023-04-16T06:11:27.504Z,84.48
2023-04-16T06:13:54.202Z,84.64
2023-04-16T06:16:20.914Z,84.49
2023-04-16T06:18:47.615Z,83.99
2023-04-16T06:21:14.297Z,84.25
2023-04-16T06:23:41.214Z,84.65
2023-04-16T06:26:07.947Z,84.52
2023-04-16T06:28:34.568Z,84.35
2023-04-16T06:31:01.522Z,84.98
2023-04-16T06:33:28.334Z,84.81
2023-04-16T06:35:55.253Z,84.79
2023-04-16T06:38:22.360Z,84.71
2023-04-16T06:40:49.873Z,85.32
2023-04-16T06:43:17.881Z,86.11
2023-04-16T06:45:45.271Z,85.73
2023-04-16T06:48:12.134Z,85.62
2023-04-16T06:50:38.961Z,86.48
2023-04-16T06:53:05.735Z,86.42
2023-04-16T06:55:32.604Z,86.27
2023-04-16T06:57:59.264Z,87.15
2023-04-16T07:00:26.179Z,87.23
2023-04-16T07:02:53.106Z,86.95
2023-04-16T07:05:20.444Z,86.42
2023-04-16T07:07:47.170Z,87.78
2023-04-16T07:10:13.952Z,86.87
2023-04-16T07:12:40.709Z,86.98
2023-04-16T07:15:08.034Z,87.46
2023-04-16T07:17:34.687Z,87.14
2023-04-16T07:20:01.366Z,87.49
2023-04-16T07:22:30.582Z,86.61
2023-04-16T07:24:57.251Z,86.08
2023-04-16T07:27:23.919Z,85.76
2023-04-16T07:29:50.853Z,86.35
2023-04-16T07:32:17.885Z,85.65
2023-04-16T07:34:44.622Z,85.27
2023-04-16T07:37:11.334Z,85.28
2023-04-16T07:39:37.995Z,84.84
2023-04-16T07:42:04.683Z,85.27
2023-04-16T07:44:31.601Z,85.10
2023-04-16T07:46:58.258Z,83.43
2023-04-16T07:49:24.998Z,84.09
2023-04-16T07:51:51.792Z,84.51
2023-04-16T07:54:18.475Z,84.65
2023-04-16T07:56:45.328Z,84.63
2023-04-16T07:59:21.969Z,85.14
2023-04-16T08:01:50.271Z,84.48
2023-04-16T08:04:22.940Z,84.20
2023-04-16T08:06:53.685Z,83.66
2023-04-16T08:09:21.621Z,83.66
2023-04-16T08:11:49.713Z,83.37
2023-04-16T08:14:17.309Z,82.75
2023-04-16T08:16:44.218Z,83.14
2023-04-16T08:19:11.028Z,84.05
2023-04-16T08:21:37.950Z,83.16
2023-04-16T08:24:04.881Z,82.91
2023-04-16T08:26:31.513Z,83.34
2023-04-16T08:28:58.133Z,82.45
2023-04-16T08:31:24.837Z,82.39
2023-04-16T08:33:51.574Z,82.78
2023-04-16T08:36:18.316Z,83.08
2023-04-16T08:38:45.011Z,83.60
2023-04-16T08:41:13.347Z,83.54
2023-04-16T08:43:45.314Z,83.82
2023-04-16T08:46:12.513Z,83.16
2023-04-16T08:48:43.198Z,85.09
2023-04-16T08:51:11.001Z,85.44
2023-04-16T08:54:12.058Z,85.97
2023-04-16T08:56:42.995Z,86.43
2023-04-16T08:59:10.731Z,88.08
2023-04-16T09:01:39.618Z,89.12
2023-04-16T09:04:07.660Z,89.84
2023-04-16T09:06:36.270Z,89.58
2023-04-16T09:09:04.884Z,89.90
2023-04-16T09:11:32.235Z,91.78
2023-04-16T09:14:00.732Z,92.78
2023-04-16T09:16:33.325Z,93.06
2023-04-16T09:19:00.275Z,93.63
2023-04-16T09:21:27.980Z,93.34
2023-04-16T09:23:55.213Z,94.03
2023-04-16T09:26:22.569Z,93.93
2023-04-16T09:28:51.196Z,95.56
2023-04-16T09:31:19.506Z,95.71
2023-04-16T09:34:03.184Z,95.42
2023-04-16T09:36:31.454Z,95.89
2023-04-16T09:38:59.453Z,97.18
2023-04-16T09:41:29.059Z,96.14
2023-04-16T09:43:57.550Z,96.45
2023-04-16T09:46:29.301Z,97.59
2023-04-16T09:48:56.237Z,97.17
2023-04-16T09:51:22.926Z,96.67
2023-04-16T09:53:53.732Z,96.01
2023-04-16T09:56:24.768Z,96.37
2023-04-16T09:58:56.020Z,97.82
2023-04-16T10:01:23.780Z,98.17
2023-04-16T10:03:51.370Z,97.64
2023-04-16T10:06:20.041Z,96.92
2023-04-16T10:08:49.731Z,98.15
2023-04-16T10:11:18.166Z,96.48
2023-04-16T10:13:45.433Z,96.43
2023-04-16T10:16:12.857Z,97.42
2023-04-16T10:18:44.749Z,98.49
2023-04-16T10:21:12.802Z,97.52
2023-04-16T10:23:40.573Z,96.74
2023-04-16T10:26:07.785Z,96.68
2023-04-16T10:28:37.902Z,95.96
2023-04-16T10:31:07.629Z,96.43
2023-04-16T10:33:37.138Z,96.16
2023-04-16T10:36:15.781Z,95.35
2023-04-16T10:38:47.622Z,94.04
2023-04-16T10:41:14.567Z,93.72
2023-04-16T10:43:44.449Z,93.83
2023-04-16T10:46:33.013Z,92.83
2023-04-16T10:49:13.664Z,92.83
2023-04-16T10:51:40.911Z,93.69
2023-04-16T10:54:12.568Z,92.19
2023-04-16T10:56:39.287Z,92.67
2023-04-16T10:59:07.451Z,92.49
2023-04-16T11:01:37.008Z,92.34
2023-04-16T11:04:19.455Z,92.16
2023-04-16T11:07:11.497Z,91.96
2023-04-16T11:09:47.400Z,91.87
2023-04-16T11:12:16.855Z,91.82
2023-04-16T11:14:46.816Z,91.17
2023-04-16T11:17:13.801Z,91.84
2023-04-16T11:19:42.631Z,91.04
2023-04-16T11:22:13.488Z,90.76
2023-04-16T11:24:40.960Z,91.34
2023-04-16T11:27:08.518Z,89.94
2023-04-16T11:29:35.381Z,89.50
2023-04-16T11:32:02.365Z,90.45
2023-04-16T11:34:29.175Z,90.94
2023-04-16T11:36:56.233Z,90.28
2023-04-16T11:39:23.197Z,90.22
2023-04-16T11:41:52.316Z,90.47
2023-04-16T11:44:23.569Z,91.06
2023-04-16T11:46:51.962Z,89.41
2023-04-16T11:49:30.977Z,90.03
2023-04-16T11:51:58.577Z,90.09
2023-04-16T11:54:25.613Z,90.05
2023-04-16T11:56:53.278Z,89.86
2023-04-16T11:59:23.633Z,89.46
2023-04-16T12:01:52.873Z,89.61
2023-04-16T12:04:21.499Z,90.02
2023-04-16T12:07:08.447Z,89.69
2023-04-16T12:09:40.012Z,90.33
2023-04-16T12:12:25.389Z,90.33
2023-04-16T12:14:54.386Z,89.74
2023-04-16T12:17:21.241Z,89.69
2023-04-16T12:19:58.477Z,89.02
2023-04-16T12:22:37.196Z,88.38
2023-04-16T12:25:11.703Z,89.98
2023-04-16T12:27:42.113Z,89.25
2023-04-16T12:30:09.308Z,89.37
2023-04-16T12:32:36.305Z,89.46
2023-04-16T12:35:03.051Z,88.64
2023-04-16T12:37:30.604Z,90.00
2023-04-16T12:39:57.386Z,90.23
2023-04-16T12:42:24.194Z,89.59
2023-04-16T12:44:51.430Z,90.40
2023-04-16T12:47:18.211Z,90.18
2023-04-16T12:49:45.651Z,89.26
2023-04-16T12:52:12.350Z,90.31
2023-04-16T12:54:39.074Z,91.16
2023-04-16T12:57:05.825Z,91.25
2023-04-16T12:59:32.448Z,91.05
2023-04-16T13:02:01.406Z,91.59
2023-04-16T13:04:28.332Z,91.34
2023-04-16T13:06:55.170Z,91.66
2023-04-16T13:09:22.008Z,91.50
2023-04-16T13:11:48.638Z,90.64
2023-04-16T13:14:15.297Z,88.47
2023-04-16T13:16:41.971Z,87.84
2023-04-16T13:19:08.967Z,88.07
2023-04-16T13:21:35.900Z,87.79
2023-04-16T13:24:02.613Z,88.16
2023-04-16T13:26:29.327Z,88.64
2023-04-16T13:28:56.068Z,88.08
2023-04-16T13:31:22.881Z,88.05
2023-04-16T13:33:50.599Z,88.36
2023-04-16T13:36:17.336Z,88.39
2023-04-16T13:38:43.975Z,88.43
2023-04-16T13:41:10.675Z,88.31
2023-04-16T13:43:37.331Z,88.28
2023-04-16T13:46:03.987Z,88.31
2023-04-16T13:48:30.789Z,89.85
2023-04-16T13:50:57.460Z,88.98
2023-04-16T13:53:24.158Z,90.13
2023-04-16T13:55:50.904Z,89.48
2023-04-16T13:58:17.621Z,89.61
2023-04-16T14:00:44.403Z,90.07
2023-04-16T14:03:11.115Z,90.60
2023-04-16T14:05:37.928Z,91.20
2023-04-16T14:08:04.662Z,91.96
2023-04-16T14:10:32.124Z,91.79
2023-04-16T14:12:58.891Z,91.49
2023-04-16T14:15:27.402Z,90.87
2023-04-16T14:17:54.188Z,91.14
2023-04-16T14:20:21.205Z,89.81
2023-04-16T14:22:47.999Z,89.28
2023-04-16T14:25:15.010Z,88.42
2023-04-16T14:27:41.816Z,89.05
2023-04-16T14:30:08.959Z,88.84
2023-04-16T14:32:36.333Z,88.35
2023-04-16T14:35:06.505Z,88.71
2023-04-16T14:37:35.841Z,89.00
2023-04-16T14:40:07.874Z,89.15
2023-04-16T14:42:36.567Z,89.45
2023-04-16T14:45:06.395Z,88.94
2023-04-16T14:47:34.375Z,89.52
2023-04-16T14:50:02.298Z,89.51
2023-04-16T14:52:32.569Z,88.48
2023-04-16T14:54:59.680Z,88.51
2023-04-16T14:57:26.772Z,88.97
2023-04-16T14:59:53.472Z,88.29
2023-04-16T15:02:20.421Z,88.77
2023-04-16T15:04:47.249Z,88.34
2023-04-16T15:07:13.949Z,88.82
2023-04-16T15:09:40.792Z,88.95
2023-04-16T15:12:07.512Z,88.85
2023-04-16T15:14:34.300Z,88.55
2023-04-16T15:17:01.208Z,88.26
2023-04-16T15:19:27.848Z,89.21
2023-04-16T15:21:55.805Z,89.98
2023-04-16T15:24:22.449Z,89.29
2023-04-16T15:26:49.063Z,88.76
2023-04-16T15:29:15.919Z,89.64
2023-04-16T15:31:42.683Z,91.66
2023-04-16T15:34:09.628Z,90.69
2023-04-16T15:36:36.484Z,90.61
2023-04-16T15:39:03.257Z,90.17
2023-04-16T15:41:31.800Z,90.66
2023-04-16T15:43:58.453Z,88.75
2023-04-16T15:46:25.163Z,89.08
2023-04-16T15:48:51.920Z,89.67
2023-04-16T15:51:18.796Z,89.09
2023-04-16T15:53:45.476Z,89.28
2023-04-16T15:56:12.170Z,89.17
2023-04-16T15:58:38.916Z,89.54
2023-04-16T16:01:05.784Z,89.30
2023-04-16T16:03:33.894Z,89.64
2023-04-16T16:06:01.629Z,89.82
2023-04-16T16:08:29.449Z,90.42
2023-04-16T16:10:56.542Z,90.08
2023-04-16T16:13:23.387Z,89.55
2023-04-16T16:15:50.925Z,90.58
2023-04-16T16:18:17.747Z,89.85
2023-04-16T16:20:44.537Z,89.11
2023-04-16T16:23:11.504Z,89.80
2023-04-16T16:25:38.306Z,90.15
2023-04-16T16:28:06.624Z,90.91
2023-04-16T16:30:33.803Z,90.70
2023-04-16T16:33:00.783Z,91.17
2023-04-16T16:35:27.461Z,90.67
2023-04-16T16:37:57.128Z,90.05
2023-04-16T16:40:23.919Z,90.38
2023-04-16T16:42:50.659Z,90.91
2023-04-16T16:45:17.447Z,91.75
2023-04-16T16:47:44.135Z,91.12
2023-04-16T16:50:11.674Z,90.38
2023-04-16T16:52:38.916Z,91.17
2023-04-16T16:55:08.573Z,90.92
2023-04-16T16:57:35.431Z,91.14
2023-04-16T17:00:02.288Z,91.74
2023-04-16T17:02:31.406Z,91.59
2023-04-16T17:04:59.033Z,92.57
2023-04-16T17:07:25.771Z,92.48
2023-04-16T17:09:52.385Z,92.76
2023-04-16T17:12:19.000Z,92.42
2023-04-16T17:14:49.911Z,92.65
2023-04-16T17:17:16.634Z,92.55
2023-04-16T17:19:44.031Z,92.00
2023-04-16T17:22:10.800Z,92.13
2023-04-16T17:24:37.451Z,93.68
2023-04-16T17:27:04.350Z,93.70
2023-04-16T17:29:31.381Z,93.41
2023-04-16T17:31:58.072Z,94.30
2023-04-16T17:34:24.874Z,94.02
2023-04-16T17:36:51.531Z,93.84
2023-04-16T17:39:18.809Z,94.55
2023-04-16T17:41:45.641Z,95.33
2023-04-16T17:44:12.501Z,95.46
2023-04-16T17:46:39.552Z,93.17
2023-04-16T17:49:06.430Z,91.21
2023-04-16T17:51:33.135Z,91.96
2023-04-16T17:53:59.803Z,90.22
2023-04-16T17:56:27.156Z,89.94
2023-04-16T17:58:53.858Z,89.95
2023-04-16T18:01:20.573Z,91.04
2023-04-16T18:03:47.449Z,90.89
2023-04-16T18:06:14.430Z,90.77
2023-04-16T18:08:41.103Z,90.36
2023-04-16T18:11:08.421Z,90.72
2023-04-16T18:13:35.604Z,91.27
2023-04-16T18:16:02.865Z,90.87
2023-04-16T18:18:29.692Z,90.73
2023-04-16T18:20:56.292Z,91.18
2023-04-16T18:23:23.042Z,90.58
2023-04-16T18:25:49.725Z,91.75
2023-04-16T18:28:17.508Z,91.97
2023-04-16T18:30:44.363Z,91.89
2023-04-16T18:33:42.784Z,91.73
2023-04-16T18:36:02.178Z,91.82
2023-04-16T18:38:31.215Z,92.17
2023-04-16T18:40:58.448Z,91.99
2023-04-16T18:43:25.340Z,92.46
2023-04-16T18:45:52.067Z,91.98
2023-04-16T18:48:18.745Z,92.35
2023-04-16T18:50:45.553Z,92.40
2023-04-16T18:53:12.443Z,92.36
2023-04-16T18:55:39.163Z,92.54
2023-04-16T18:58:05.839Z,93.97
2023-04-16T19:00:32.637Z,93.17
2023-04-16T19:02:59.439Z,93.59
2023-04-16T19:05:26.377Z,94.51
2023-04-16T19:07:53.152Z,94.19
2023-04-16T19:10:19.983Z,95.21
2023-04-16T19:12:46.650Z,96.09
2023-04-16T19:15:14.587Z,95.70
2023-04-16T19:17:41.311Z,94.62
2023-04-16T19:20:11.154Z,94.77
2023-04-16T19:22:38.341Z,95.12
2023-04-16T19:25:05.966Z,95.30
2023-04-16T19:27:32.730Z,95.78
2023-04-16T19:29:59.729Z,96.02
2023-04-16T19:32:26.557Z,95.52
2023-04-16T19:34:53.202Z,95.39
2023-04-16T19:37:19.878Z,94.67
2023-04-16T19:39:46.616Z,94.67
2023-04-16T19:42:13.337Z,94.31
2023-04-16T19:44:39.930Z,95.05
2023-04-16T19:47:06.652Z,95.19
2023-04-16T19:49:34.549Z,95.47
2023-04-16T19:52:01.549Z,95.03
2023-04-16T19:54:28.844Z,94.49
2023-04-16T19:56:55.529Z,94.35
2023-04-16T19:59:22.297Z,94.31
2023-04-16T20:01:48.919Z,94.07
2023-04-16T20:04:15.836Z,94.49
2023-04-16T20:06:42.486Z,95.23
2023-04-16T20:09:09.222Z,94.15
2023-04-16T20:11:36.024Z,94.07
2023-04-16T20:14:02.763Z,94.17
2023-04-16T20:16:30.009Z,93.64
2023-04-16T20:18:56.831Z,93.63
2023-04-16T20:21:23.664Z,93.47
2023-04-16T20:23:50.510Z,92.96
2023-04-16T20:26:18.403Z,93.95
2023-04-16T20:28:45.597Z,93.55
2023-04-16T20:31:12.888Z,93.53
2023-04-16T20:33:39.733Z,93.12
2023-04-16T20:36:07.088Z,93.51
2023-04-16T20:38:35.384Z,94.04
2023-04-16T20:41:12.347Z,94.58
2023-04-16T20:43:44.012Z,93.67
2023-04-16T20:46:12.023Z,92.88
2023-04-16T20:48:38.998Z,92.60
2023-04-16T20:51:07.872Z,93.22
2023-04-16T20:53:36.866Z,94.03
2023-04-16T20:56:03.680Z,93.51
2023-04-16T20:58:30.558Z,94.36
2023-04-16T21:00:57.496Z,94.71
2023-04-16T21:03:24.543Z,94.84
2023-04-16T21:05:55.790Z,94.17
2023-04-16T21:08:23.242Z,94.42
2023-04-16T21:10:50.858Z,93.20
2023-04-16T21:13:18.612Z,92.63
2023-04-16T21:15:45.899Z,91.80
2023-04-16T21:18:12.951Z,92.27
2023-04-16T21:20:39.892Z,91.94
2023-04-16T21:23:06.679Z,92.31
2023-04-16T21:25:33.526Z,92.95
2023-04-16T21:28:00.460Z,91.55
2023-04-16T21:30:27.452Z,91.67
2023-04-16T21:32:54.837Z,93.13
2023-04-16T21:35:21.802Z,92.59
2023-04-16T21:37:48.472Z,91.94
2023-04-16T21:40:15.247Z,92.95
2023-04-16T21:42:42.455Z,93.94
2023-04-16T21:45:10.365Z,93.78
2023-04-16T21:47:37.905Z,93.58
2023-04-16T21:50:05.048Z,92.77
2023-04-16T21:52:32.878Z,92.13
2023-04-16T21:55:00.314Z,91.48
2023-04-16T21:57:27.089Z,92.17
2023-04-16T21:59:53.791Z,92.01
2023-04-16T22:02:21.114Z,91.82
2023-04-16T22:04:48.588Z,92.29
2023-04-16T22:07:16.708Z,92.20
2023-04-16T22:09:43.694Z,91.96
2023-04-16T22:12:10.481Z,92.22
2023-04-16T22:14:44.088Z,91.82
2023-04-16T22:17:17.128Z,91.30
2023-04-16T22:19:44.565Z,90.84
2023-04-16T22:22:11.352Z,91.15
2023-04-16T22:24:37.988Z,91.11
2023-04-16T22:27:04.687Z,91.36
2023-04-16T22:29:31.380Z,91.68
2023-04-16T22:31:58.073Z,91.31
2023-04-16T22:34:24.860Z,92.19
2023-04-16T22:36:51.611Z,92.13
2023-04-16T22:39:18.729Z,92.15
2023-04-16T22:41:45.504Z,91.74
2023-04-16T22:44:12.133Z,91.64
2023-04-16T22:46:38.929Z,92.11
2023-04-16T22:49:05.676Z,92.16
2023-04-16T22:51:32.394Z,92.34
2023-04-16T22:53:59.117Z,92.62
2023-04-16T22:56:28.723Z,93.57
2023-04-16T22:58:55.499Z,93.38
2023-04-16T23:01:22.851Z,93.30
2023-04-16T23:03:49.638Z,93.67
2023-04-16T23:06:16.372Z,93.69
2023-04-16T23:08:43.184Z,93.85
2023-04-16T23:11:09.853Z,94.22
2023-04-16T23:13:37.279Z,93.95
2023-04-16T23:16:04.161Z,93.90
2023-04-16T23:18:31.219Z,94.59
2023-04-16T23:20:57.913Z,95.05
2023-04-16T23:23:24.569Z,95.60
2023-04-16T23:25:54.536Z,95.29
2023-04-16T23:28:22.066Z,94.96
2023-04-16T23:30:52.812Z,95.48
2023-04-16T23:33:19.623Z,95.63
2023-04-16T23:35:47.296Z,96.19
2023-04-16T23:38:14.191Z,96.04
2023-04-16T23:40:41.864Z,95.26
2023-04-16T23:43:08.623Z,95.20
2023-04-16T23:45:35.476Z,95.30
2023-04-16T23:48:02.408Z,95.49
2023-04-16T23:50:29.136Z,95.45
2023-04-16T23:52:55.866Z,96.04
2023-04-16T23:55:22.734Z,96.34
2023-04-16T23:57:49.568Z,96.08
